Terminal Aerodrome Forecast
Issued by NWS

Home | Current Version | Previous Version | Text Only | Print | Product List | Glossary On
Versions: 1 2 3 4 5 6 7 8 9 10 11 12 13
000
FTUS44 KOUN 221120
TAFHBR
TAF
KHBR 221120Z 2212/2312 21011KT P6SM BKN100
     FM221700 30010KT P6SM BKN100
     FM222200 05009KT P6SM VCTS BKN080CB
      TEMPO 2222/2302 3SM TSRA BKN040CB=

USA.gov is the U.S. government's official web portal to all federal, state and local government web resources and services.